<<    August 2013    >>
Datum    Temp.       Tempmin      Tempmax    Taup.       Taup.min      Taup.max    Feuchte    Feuchtemin    Feuchtemax    Druck    Druckmin    Druckmax    Regen    Wind    Benmax  
  01.08.2013  24,8    17,5    04:40    33,6    16:51  14,3    10,0    19:08    18,1    11:41  58,1    25    17:27    89    04:59  1013,7    1010    18:50    1017    00:00  0,0  1,7  13,0  
  02.08.2013  28,3    20,4    04:28    38,0    16:56  12,2    6,7    19:13    16,4    11:39  41,4    17    16:30    65    06:13  1009,0    1007    15:05    1011    00:00  0,0  2,5  15,8  
  03.08.2013  24,7    20,2    23:59    29,3    15:17  12,7    6,6    18:41    19,4    09:09  50,6    28    17:54    89    08:18  1014,5    1008    00:00    1020    22:49  2,1  2,9  16,6  
  04.08.2013  22,4    15,8    06:04    29,4    17:15  10,2    6,3    18:03    13,6    10:06  49,5    24    17:35    80    06:40  1019,2    1017    22:04    1020    00:00  0,0  1,0  11,5  
  05.08.2013  24,8    17,5    05:59    33,2    17:08  11,2    7,9    17:22    14,6    23:59  46,5    21    17:22    71    04:22  1014,2    1009    21:19    1019    03:49  0,0  1,7  15,5  
  06.08.2013  22,8    18,7    07:01    27,6    01:58  11,1    7,9    17:06    15,4    01:41  48,9    31    15:47    65    07:17  1013,7    1009    00:00    1016    09:23  0,0  2,9  12,6  
  07.08.2013  20,3    16,3    06:10    26,7    16:02  14,9    12,2    02:18    19,9    13:26  72,3    47    16:04    92    11:58  1009,6    1006    16:18    1014    00:00  0,9  2,0  11,9  
  08.08.2013  18,1    15,4    04:14    22,7    17:40  12,6    8,8    17:17    15,3    00:00  72,5    42    17:09    92    09:09  1016,2    1011    01:03    1020    23:18  0,0  2,7  10,4  
  09.08.2013  19,6    14,1    04:06    26,5    16:04  10,4    5,9    16:43    14,0    09:13  59,2    29    16:35    84    04:26  1019,1    1017    15:51    1021    03:07  0,0  1,2  10,4  
  10.08.2013  19,0    15,5    23:59    24,1    15:00  10,2    3,7    22:03    14,1    08:07  59,4    35    17:24    88    07:23  1019,3    1018    01:49    1021    20:48  0,0  2,8  14,0  
  11.08.2013  18,7    12,7    06:06    25,8    16:50  6,8    4,2    17:05    11,5    23:07  48,7    26    15:12    70    06:38  1018,6    1015    19:02    1021    02:47  0,0  2,1  17,6  
  12.08.2013  18,8    14,7    06:29    24,1    14:20  9,5    5,5    19:36    13,3    09:33  56,6    35    14:26    77    06:44  1015,1    1013    14:13    1017    00:44  0,0  1,9  16,2  
  13.08.2013  17,6    14,2    23:59    22,6    15:22  7,9    3,6    15:45    10,0    07:33  54,3    32    15:23    70    07:33  1018,3    1015    00:00    1022    22:02  0,0  3,2  23,0  
  14.08.2013  16,5    10,4    04:57    22,9    15:28  7,6    4,6    15:46    10,0    10:32  58,3    32    15:36    80    05:23  1022,4    1021    00:46    1024    11:16  0,0  1,4  13,0  
  15.08.2013  18,5    12,9    04:42    24,6    15:22  10,5    8,4    13:47    12,5    23:42  62,0    37    13:47    84    05:42  1021,3    1019    16:30    1023    00:00  0,0  1,8  12,2  
  16.08.2013  22,1    14,8    06:19    31,5    16:28  10,0    4,0    18:44    13,2    04:41  53,0    20    16:26    86    06:10  1016,6    1013    16:45    1020    00:00  0,0  1,8  15,1  
  17.08.2013  22,3    17,8    08:00    28,0    16:07  11,7    8,7    16:33    15,2    08:48  53,3    31    16:19    81    07:55  1014,3    1011    20:56    1017    09:31  0,0  2,3  18,4  
  18.08.2013  21,1    19,0    23:59    24,5    11:00  14,5    11,2    00:00    18,8    23:44  67,5    47    11:03    98    23:59  1011,2    1009    10:13    1013    18:01  1,8  1,8  15,5  
  19.08.2013  18,0    14,9    23:59    22,7    13:39  14,7    8,3    17:46    18,7    00:00  82,5    48    17:43    98    00:00  1015,3    1011    06:44    1024    23:44  0,0  2,5  19,4  
  20.08.2013  16,2    10,9    06:15    21,6    13:35  9,5    6,1    13:41    14,0    09:47  68,3    37    13:37    96    07:31  1027,0    1023    00:14    1029    14:59  0,0  1,3  16,2  
  21.08.2013  17,6    10,9    06:14    25,3    16:43  7,9    3,3    17:59    11,1    08:34  58,9    26    15:59    91    06:55  1024,6    1021    18:29    1028    00:15  4,0  1,5  11,9  
  22.08.2013  19,5    11,9    06:01    27,2    15:59  8,6    4,0    15:30    12,0    09:53  54,3    23    15:13    87    07:06  1019,7    1017    17:28    1022    00:00  0,0  1,7  11,9  
  23.08.2013  22,1    15,9    06:56    29,3    16:33  10,1    7,1    16:39    13,5    09:55  50,0    25    16:39    79    08:20  1015,7    1013    19:29    1018    00:00  0,0  1,5  12,6  
  24.08.2013  19,4    17,2    23:59    23,4    13:52  12,5    7,9    00:04    17,6    21:14  66,8    43    00:00    96    22:46  1011,2    1009    19:29    1014    00:00  4,0  1,7  12,2  
  25.08.2013  17,0    15,7    23:59    18,0    18:08  16,6    15,4    23:31    17,7    18:08  96,9    90    12:00    98    01:28  1010,8    1009    00:59    1013    23:59  3,6  0,7  9,7  
  26.08.2013  17,4    13,7    06:22    21,5    14:14  13,0    8,3    16:49    16,4    10:35  78,1    45    17:35    98    00:00  1013,8    1013    00:00    1015    20:29  0,0  1,4  19,1  
  27.08.2013  18,4    13,3    07:05    23,8    13:29  9,9    5,4    13:00    13,7    08:52  61,9    32    12:58    94    08:11  1014,6    1013    21:01    1015    00:00  0,0  1,3  20,9  
  28.08.2013  17,5    11,2    06:27    24,8    16:58  9,3    5,9    17:33    13,3    10:39  62,8    32    16:51    91    07:37  1018,0    1015    00:00    1020    20:43  0,0  1,2  10,1  
  29.08.2013  18,5    12,0    06:27    26,2    16:02  9,9    6,8    16:18    13,8    11:15  62,4    30    15:33    93    07:41  1020,8    1019    16:42    1023    09:42  0,0  1,3  9,7  
  30.08.2013  18,6    12,8    06:28    25,7    14:23  10,2    7,5    17:50    13,1    09:49  62,1    34    14:28    91    07:50  1019,2    1017    15:42    1021    07:13  0,0  1,5  12,2  
  31.08.2013  17,5    14,0    05:40    21,1    18:04  12,0    6,0    22:48    19,2    14:38  71,4    46    19:01    96    14:17  1020,1    1019    00:00    1024    22:02  0,0  2,4  17,3  
 
  Gesamt  19,9  10,4            38,0            11,0  3,3            19,9            60,9  17            98            1016,7  1006            1029            16,3  1,9  23,0  
 
  Mittelwert  19,9  14,9            26,0            11,0  7,0            14,8            60,9  34,5            86,1            1016,7  1013,8            1019,4            0,5  1,9  14,4  
  Minimum  16,2  10,4            18,0            6,8  3,3            10,0            41,4  17,0            65,0            1009,0  1006,0            1011,0            0,0  0,7  9,7  
  Maximum  28,3  20,4            38,0            16,6  15,4            19,9            96,9  90,0            98,0            1027,0  1023,0            1029,0            4,0  3,2  23,0  

  Heie Tage    Tmax >=30C     4  
  Sommertage    Tmax >=25C     16  
  Warme Tage    Tmax >=20C     30  
  Kalte Tage    Tmax  <10C     0  
  Frosttage    Tmin  <0C     0  
  Eistage    Tmax  <0C     0  
  Regentage > 0 mm    6  
  Regentage > 2 mm    4  
  Regentage > 10 mm    0  
  Regentage > 20 mm    0